Savona, Canada
Current Conditions -  °F | °C
As of 3:00 AM on Monday 20 Oct 2014 (Local Time) from CYKA Reporting Station
Scattered Clouds Scattered Clouds  
Wind Chill: 59°   Ceiling: Unl
Heat Index: 59°   Visibility: 40mi
Dew Point: 46°   Wind: 7mph
Humidity: 63%   Direction: 60°ENE
Pressure: 29.65"   Gusts: NA
Location:  50.75°N, 120.85°W
Report Text: CYKA 201000Z 06006KT 350V100 40SM FEW090 SCT230 15/08 A2965 RMK AC1CI3 SLP041 DENSITY ALT 1600FT
Loading
Personal Weather Stations






























Interactive Weather Map
Tropical Storm Tracking
New forecast layout! Learn more

10-Day Weather Forecast

Advertisements
Track Severe Weather on mobile